sensor_id;sensor_type;location;lat;lon;timestamp;temperature;humidity
3660;DHT22;1846;51.482;7.224;2023-05-07T00:01:06;15.90;99.90
3660;DHT22;1846;51.482;7.224;2023-05-07T00:03:33;15.90;99.90
3660;DHT22;1846;51.482;7.224;2023-05-07T00:05:59;15.80;1.00
3660;DHT22;1846;51.482;7.224;2023-05-07T00:08:26;15.80;1.00
3660;DHT22;1846;51.482;7.224;2023-05-07T00:10:53;15.90;1.00
3660;DHT22;1846;51.482;7.224;2023-05-07T00:13:20;15.80;1.00
3660;DHT22;1846;51.482;7.224;2023-05-07T00:15:47;15.80;1.00
3660;DHT22;1846;51.482;7.224;2023-05-07T00:18:15;15.80;1.00
3660;DHT22;1846;51.482;7.224;2023-05-07T00:20:42;15.90;1.00
3660;DHT22;1846;51.482;7.224;2023-05-07T00:23:09;15.90;1.00
3660;DHT22;1846;51.482;7.224;2023-05-07T00:25:36;15.80;1.00
3660;DHT22;1846;51.482;7.224;2023-05-07T00:28:03;15.80;1.00
3660;DHT22;1846;51.482;7.224;2023-05-07T00:30:30;15.80;1.00
3660;DHT22;1846;51.482;7.224;2023-05-07T00:32:56;15.80;1.00
3660;DHT22;1846;51.482;7.224;2023-05-07T00:35:25;15.80;1.00
3660;DHT22;1846;51.482;7.224;2023-05-07T00:37:52;15.80;1.00
3660;DHT22;1846;51.482;7.224;2023-05-07T00:40:19;15.80;1.00
3660;DHT22;1846;51.482;7.224;2023-05-07T00:42:45;15.80;1.00
3660;DHT22;1846;51.482;7.224;2023-05-07T00:45:14;15.80;1.00
3660;DHT22;1846;51.482;7.224;2023-05-07T00:47:42;15.80;1.00
3660;DHT22;1846;51.482;7.224;2023-05-07T00:50:10;15.80;1.00
3660;DHT22;1846;51.482;7.224;2023-05-07T00:52:40;15.80;1.00
3660;DHT22;1846;51.482;7.224;2023-05-07T00:55:07;15.80;1.00
3660;DHT22;1846;51.482;7.224;2023-05-07T00:57:36;15.80;1.00
3660;DHT22;1846;51.482;7.224;2023-05-07T01:00:06;15.70;1.00
3660;DHT22;1846;51.482;7.224;2023-05-07T01:02:34;15.80;1.00
3660;DHT22;1846;51.482;7.224;2023-05-07T01:05:02;15.80;1.00
3660;DHT22;1846;51.482;7.224;2023-05-07T01:07:29;15.80;1.00
3660;DHT22;1846;51.482;7.224;2023-05-07T01:09:58;15.70;1.00
3660;DHT22;1846;51.482;7.224;2023-05-07T01:12:27;15.60;1.00
3660;DHT22;1846;51.482;7.224;2023-05-07T01:14:54;15.70;1.00
3660;DHT22;1846;51.482;7.224;2023-05-07T01:17:21;15.70;1.00
3660;DHT22;1846;51.482;7.224;2023-05-07T01:19:48;15.70;1.00
3660;DHT22;1846;51.482;7.224;2023-05-07T01:22:16;15.60;1.00
3660;DHT22;1846;51.482;7.224;2023-05-07T01:24:47;15.60;1.00
3660;DHT22;1846;51.482;7.224;2023-05-07T01:27:14;15.60;1.00
3660;DHT22;1846;51.482;7.224;2023-05-07T01:29:41;15.50;1.00
3660;DHT22;1846;51.482;7.224;2023-05-07T01:32:08;15.40;1.00
3660;DHT22;1846;51.482;7.224;2023-05-07T01:34:36;15.50;1.00
3660;DHT22;1846;51.482;7.224;2023-05-07T01:37:03;15.40;1.00
3660;DHT22;1846;51.482;7.224;2023-05-07T01:39:31;15.40;1.00
3660;DHT22;1846;51.482;7.224;2023-05-07T01:42:00;15.40;1.00
3660;DHT22;1846;51.482;7.224;2023-05-07T01:44:27;15.50;1.00
3660;DHT22;1846;51.482;7.224;2023-05-07T01:46:54;15.50;1.00
3660;DHT22;1846;51.482;7.224;2023-05-07T01:49:21;15.50;1.00
3660;DHT22;1846;51.482;7.224;2023-05-07T01:51:49;15.40;1.00
3660;DHT22;1846;51.482;7.224;2023-05-07T01:54:16;15.40;1.00
3660;DHT22;1846;51.482;7.224;2023-05-07T01:56:43;15.40;1.00
3660;DHT22;1846;51.482;7.224;2023-05-07T01:59:11;15.40;1.00
3660;DHT22;1846;51.482;7.224;2023-05-07T02:01:39;15.40;1.00
3660;DHT22;1846;51.482;7.224;2023-05-07T02:04:05;15.40;1.00
3660;DHT22;1846;51.482;7.224;2023-05-07T02:06:32;15.40;1.00
3660;DHT22;1846;51.482;7.224;2023-05-07T02:08:59;15.30;1.00
3660;DHT22;1846;51.482;7.224;2023-05-07T02:11:26;15.30;1.00
3660;DHT22;1846;51.482;7.224;2023-05-07T02:13:53;15.30;1.00
3660;DHT22;1846;51.482;7.224;2023-05-07T02:16:21;15.30;1.00
3660;DHT22;1846;51.482;7.224;2023-05-07T02:18:49;15.30;1.00
3660;DHT22;1846;51.482;7.224;2023-05-07T02:21:16;15.30;1.00
3660;DHT22;1846;51.482;7.224;2023-05-07T02:23:43;15.30;1.00
3660;DHT22;1846;51.482;7.224;2023-05-07T02:26:10;15.30;1.00
3660;DHT22;1846;51.482;7.224;2023-05-07T02:28:37;15.30;1.00
3660;DHT22;1846;51.482;7.224;2023-05-07T02:31:07;15.30;1.00
3660;DHT22;1846;51.482;7.224;2023-05-07T02:33:35;15.30;1.00
3660;DHT22;1846;51.482;7.224;2023-05-07T02:36:07;15.30;1.00
3660;DHT22;1846;51.482;7.224;2023-05-07T02:38:34;15.30;1.00
3660;DHT22;1846;51.482;7.224;2023-05-07T02:41:01;15.20;1.00
3660;DHT22;1846;51.482;7.224;2023-05-07T02:43:28;15.20;1.00
3660;DHT22;1846;51.482;7.224;2023-05-07T02:46:02;15.20;1.00
3660;DHT22;1846;51.482;7.224;2023-05-07T02:48:29;15.20;1.00
3660;DHT22;1846;51.482;7.224;2023-05-07T02:50:57;15.20;1.00
3660;DHT22;1846;51.482;7.224;2023-05-07T02:53:24;15.20;1.00
3660;DHT22;1846;51.482;7.224;2023-05-07T02:55:52;15.10;1.00
3660;DHT22;1846;51.482;7.224;2023-05-07T02:58:19;15.00;1.00
3660;DHT22;1846;51.482;7.224;2023-05-07T03:00:46;15.10;8.00
3660;DHT22;1846;51.482;7.224;2023-05-07T03:03:13;15.10;1.00
3660;DHT22;1846;51.482;7.224;2023-05-07T03:05:40;15.10;7.30
3660;DHT22;1846;51.482;7.224;2023-05-07T03:08:10;15.00;16.40
3660;DHT22;1846;51.482;7.224;2023-05-07T03:10:37;15.00;9.20
3660;DHT22;1846;51.482;7.224;2023-05-07T03:13:04;15.00;15.30
3660;DHT22;1846;51.482;7.224;2023-05-07T03:15:31;15.00;5.70
3660;DHT22;1846;51.482;7.224;2023-05-07T03:17:58;14.90;16.30
3660;DHT22;1846;51.482;7.224;2023-05-07T03:20:25;15.00;17.10
3660;DHT22;1846;51.482;7.224;2023-05-07T03:22:52;15.00;1.50
3660;DHT22;1846;51.482;7.224;2023-05-07T03:25:20;15.00;1.00
3660;DHT22;1846;51.482;7.224;2023-05-07T03:27:47;15.00;1.90
3660;DHT22;1846;51.482;7.224;2023-05-07T03:30:14;14.90;11.60
3660;DHT22;1846;51.482;7.224;2023-05-07T03:32:41;15.00;23.30
3660;DHT22;1846;51.482;7.224;2023-05-07T03:35:08;15.00;28.50
3660;DHT22;1846;51.482;7.224;2023-05-07T03:37:35;15.00;28.70
3660;DHT22;1846;51.482;7.224;2023-05-07T03:40:02;15.00;20.50
3660;DHT22;1846;51.482;7.224;2023-05-07T03:42:30;15.00;5.50
3660;DHT22;1846;51.482;7.224;2023-05-07T03:44:57;15.10;1.00
3660;DHT22;1846;51.482;7.224;2023-05-07T03:47:24;15.00;1.00
3660;DHT22;1846;51.482;7.224;2023-05-07T03:49:53;15.00;1.00
3660;DHT22;1846;51.482;7.224;2023-05-07T03:52:20;15.00;1.00
3660;DHT22;1846;51.482;7.224;2023-05-07T03:54:51;15.00;8.70
3660;DHT22;1846;51.482;7.224;2023-05-07T03:57:18;15.00;14.20
3660;DHT22;1846;51.482;7.224;2023-05-07T03:59:46;15.00;19.00
3660;DHT22;1846;51.482;7.224;2023-05-07T04:02:13;14.90;20.70
3660;DHT22;1846;51.482;7.224;2023-05-07T04:04:40;14.90;14.00
3660;DHT22;1846;51.482;7.224;2023-05-07T04:07:07;14.90;16.30
3660;DHT22;1846;51.482;7.224;2023-05-07T04:09:33;14.90;23.40
3660;DHT22;1846;51.482;7.224;2023-05-07T04:12:00;14.90;21.40
3660;DHT22;1846;51.482;7.224;2023-05-07T04:14:27;14.80;10.40
3660;DHT22;1846;51.482;7.224;2023-05-07T04:16:57;14.80;32.80
3660;DHT22;1846;51.482;7.224;2023-05-07T04:19:24;14.80;34.10
3660;DHT22;1846;51.482;7.224;2023-05-07T04:21:51;14.80;42.70
3660;DHT22;1846;51.482;7.224;2023-05-07T04:24:17;14.80;21.20
3660;DHT22;1846;51.482;7.224;2023-05-07T04:26:44;14.70;34.40
3660;DHT22;1846;51.482;7.224;2023-05-07T04:29:11;14.70;57.20
3660;DHT22;1846;51.482;7.224;2023-05-07T04:31:38;14.70;50.80
3660;DHT22;1846;51.482;7.224;2023-05-07T04:34:06;14.70;58.70
3660;DHT22;1846;51.482;7.224;2023-05-07T04:36:38;14.70;58.20
3660;DHT22;1846;51.482;7.224;2023-05-07T04:39:05;14.80;63.50
3660;DHT22;1846;51.482;7.224;2023-05-07T04:41:32;14.80;57.70
3660;DHT22;1846;51.482;7.224;2023-05-07T04:44:00;14.70;49.00
3660;DHT22;1846;51.482;7.224;2023-05-07T04:46:29;14.70;69.20
3660;DHT22;1846;51.482;7.224;2023-05-07T04:48:56;14.80;58.70
3660;DHT22;1846;51.482;7.224;2023-05-07T04:51:24;14.70;55.90
3660;DHT22;1846;51.482;7.224;2023-05-07T04:53:51;14.70;92.30
3660;DHT22;1846;51.482;7.224;2023-05-07T04:56:18;14.80;95.90
3660;DHT22;1846;51.482;7.224;2023-05-07T04:58:45;14.90;82.00
3660;DHT22;1846;51.482;7.224;2023-05-07T05:01:12;14.90;80.80
3660;DHT22;1846;51.482;7.224;2023-05-07T05:03:39;15.00;77.20
3660;DHT22;1846;51.482;7.224;2023-05-07T05:06:06;15.00;52.00
3660;DHT22;1846;51.482;7.224;2023-05-07T05:08:34;15.10;58.00
3660;DHT22;1846;51.482;7.224;2023-05-07T05:11:01;15.20;46.20
3660;DHT22;1846;51.482;7.224;2023-05-07T05:13:28;15.20;38.90
3660;DHT22;1846;51.482;7.224;2023-05-07T05:15:55;15.30;16.50
3660;DHT22;1846;51.482;7.224;2023-05-07T05:18:22;15.30;1.00
3660;DHT22;1846;51.482;7.224;2023-05-07T05:20:50;15.30;1.00
3660;DHT22;1846;51.482;7.224;2023-05-07T05:23:17;15.40;1.00
3660;DHT22;1846;51.482;7.224;2023-05-07T05:25:45;15.40;1.00
3660;DHT22;1846;51.482;7.224;2023-05-07T05:28:12;15.50;1.00
3660;DHT22;1846;51.482;7.224;2023-05-07T05:30:39;15.50;1.00
3660;DHT22;1846;51.482;7.224;2023-05-07T05:33:06;15.50;1.00
3660;DHT22;1846;51.482;7.224;2023-05-07T05:35:33;15.50;1.00
3660;DHT22;1846;51.482;7.224;2023-05-07T05:38:00;15.50;1.00
3660;DHT22;1846;51.482;7.224;2023-05-07T05:40:27;15.50;1.00
3660;DHT22;1846;51.482;7.224;2023-05-07T05:42:55;15.60;1.00
3660;DHT22;1846;51.482;7.224;2023-05-07T05:45:22;15.60;1.00
3660;DHT22;1846;51.482;7.224;2023-05-07T05:47:49;15.60;1.00
3660;DHT22;1846;51.482;7.224;2023-05-07T05:50:16;15.70;1.00
3660;DHT22;1846;51.482;7.224;2023-05-07T05:52:43;15.80;1.00
3660;DHT22;1846;51.482;7.224;2023-05-07T05:55:10;15.90;1.00
3660;DHT22;1846;51.482;7.224;2023-05-07T05:57:37;16.00;1.00
3660;DHT22;1846;51.482;7.224;2023-05-07T06:00:06;16.10;99.90
3660;DHT22;1846;51.482;7.224;2023-05-07T06:02:33;16.20;99.90
3660;DHT22;1846;51.482;7.224;2023-05-07T06:05:00;16.20;19.40
3660;DHT22;1846;51.482;7.224;2023-05-07T06:07:27;16.10;1.00
3660;DHT22;1846;51.482;7.224;2023-05-07T06:09:54;16.20;1.00
3660;DHT22;1846;51.482;7.224;2023-05-07T06:12:21;16.30;99.90
3660;DHT22;1846;51.482;7.224;2023-05-07T06:14:48;16.30;99.90
3660;DHT22;1846;51.482;7.224;2023-05-07T06:17:16;16.30;99.90
3660;DHT22;1846;51.482;7.224;2023-05-07T06:19:43;16.40;1.00
3660;DHT22;1846;51.482;7.224;2023-05-07T06:22:10;16.60;99.90
3660;DHT22;1846;51.482;7.224;2023-05-07T06:24:37;16.60;20.20
3660;DHT22;1846;51.482;7.224;2023-05-07T06:27:03;16.70;99.90
3660;DHT22;1846;51.482;7.224;2023-05-07T06:29:30;16.90;1.00
3660;DHT22;1846;51.482;7.224;2023-05-07T06:32:06;17.00;99.90
3660;DHT22;1846;51.482;7.224;2023-05-07T06:34:35;17.10;1.00
3660;DHT22;1846;51.482;7.224;2023-05-07T06:37:02;17.20;1.00
3660;DHT22;1846;51.482;7.224;2023-05-07T06:39:29;17.10;1.00
3660;DHT22;1846;51.482;7.224;2023-05-07T06:41:55;17.20;1.00
3660;DHT22;1846;51.482;7.224;2023-05-07T06:44:22;17.30;99.90
3660;DHT22;1846;51.482;7.224;2023-05-07T06:46:49;17.40;99.90
3660;DHT22;1846;51.482;7.224;2023-05-07T06:49:16;17.50;99.90
3660;DHT22;1846;51.482;7.224;2023-05-07T06:51:44;17.60;99.90
3660;DHT22;1846;51.482;7.224;2023-05-07T06:54:11;17.60;99.90
3660;DHT22;1846;51.482;7.224;2023-05-07T06:56:38;17.60;74.70
3660;DHT22;1846;51.482;7.224;2023-05-07T06:59:05;17.70;7.70
3660;DHT22;1846;51.482;7.224;2023-05-07T07:01:32;17.80;1.00
3660;DHT22;1846;51.482;7.224;2023-05-07T07:03:59;17.90;1.00
3660;DHT22;1846;51.482;7.224;2023-05-07T07:06:27;17.90;1.00
3660;DHT22;1846;51.482;7.224;2023-05-07T07:08:55;18.00;1.00
3660;DHT22;1846;51.482;7.224;2023-05-07T07:11:21;18.00;1.00
3660;DHT22;1846;51.482;7.224;2023-05-07T07:13:48;17.90;1.00
3660;DHT22;1846;51.482;7.224;2023-05-07T07:16:16;18.00;1.00
3660;DHT22;1846;51.482;7.224;2023-05-07T07:18:43;18.20;1.00
3660;DHT22;1846;51.482;7.224;2023-05-07T07:21:10;18.30;1.00
3660;DHT22;1846;51.482;7.224;2023-05-07T07:23:37;18.20;1.00
3660;DHT22;1846;51.482;7.224;2023-05-07T07:26:05;18.10;1.00
3660;DHT22;1846;51.482;7.224;2023-05-07T07:28:32;18.10;1.00
3660;DHT22;1846;51.482;7.224;2023-05-07T07:30:59;18.10;1.00
3660;DHT22;1846;51.482;7.224;2023-05-07T07:33:26;18.30;1.00
3660;DHT22;1846;51.482;7.224;2023-05-07T07:35:53;18.30;1.00
3660;DHT22;1846;51.482;7.224;2023-05-07T07:38:20;18.40;1.00
3660;DHT22;1846;51.482;7.224;2023-05-07T07:40:47;18.50;1.00
3660;DHT22;1846;51.482;7.224;2023-05-07T07:43:15;18.50;1.00
3660;DHT22;1846;51.482;7.224;2023-05-07T07:45:42;18.70;1.00
3660;DHT22;1846;51.482;7.224;2023-05-07T07:48:09;18.80;1.00
3660;DHT22;1846;51.482;7.224;2023-05-07T07:50:36;18.80;1.00
3660;DHT22;1846;51.482;7.224;2023-05-07T07:53:03;18.60;1.00
3660;DHT22;1846;51.482;7.224;2023-05-07T07:55:30;18.60;1.00
3660;DHT22;1846;51.482;7.224;2023-05-07T07:57:57;18.60;1.00
3660;DHT22;1846;51.482;7.224;2023-05-07T08:00:26;18.70;1.00
3660;DHT22;1846;51.482;7.224;2023-05-07T08:02:52;18.80;1.00
3660;DHT22;1846;51.482;7.224;2023-05-07T08:05:19;18.90;1.00
3660;DHT22;1846;51.482;7.224;2023-05-07T08:07:47;18.90;1.00
3660;DHT22;1846;51.482;7.224;2023-05-07T08:10:17;19.00;99.90
3660;DHT22;1846;51.482;7.224;2023-05-07T08:12:46;19.00;99.90
3660;DHT22;1846;51.482;7.224;2023-05-07T08:15:13;19.00;99.90
3660;DHT22;1846;51.482;7.224;2023-05-07T08:17:42;19.00;99.90
3660;DHT22;1846;51.482;7.224;2023-05-07T08:20:10;18.90;99.90
3660;DHT22;1846;51.482;7.224;2023-05-07T08:22:37;19.10;99.90
3660;DHT22;1846;51.482;7.224;2023-05-07T08:25:04;19.30;99.90
3660;DHT22;1846;51.482;7.224;2023-05-07T08:27:31;19.50;99.90
3660;DHT22;1846;51.482;7.224;2023-05-07T08:29:58;19.60;99.90
3660;DHT22;1846;51.482;7.224;2023-05-07T08:32:25;19.60;99.90
3660;DHT22;1846;51.482;7.224;2023-05-07T08:34:53;19.90;99.90
3660;DHT22;1846;51.482;7.224;2023-05-07T08:37:20;20.10;99.90
3660;DHT22;1846;51.482;7.224;2023-05-07T08:39:47;20.30;99.90
3660;DHT22;1846;51.482;7.224;2023-05-07T08:42:16;20.40;99.90
3660;DHT22;1846;51.482;7.224;2023-05-07T08:44:45;20.60;99.90
3660;DHT22;1846;51.482;7.224;2023-05-07T08:47:13;20.60;99.90
3660;DHT22;1846;51.482;7.224;2023-05-07T08:49:40;20.60;99.90
3660;DHT22;1846;51.482;7.224;2023-05-07T08:52:08;20.60;99.90
3660;DHT22;1846;51.482;7.224;2023-05-07T08:54:37;20.60;99.90
3660;DHT22;1846;51.482;7.224;2023-05-07T08:57:04;20.70;99.90
3660;DHT22;1846;51.482;7.224;2023-05-07T08:59:31;21.00;99.90
3660;DHT22;1846;51.482;7.224;2023-05-07T09:01:58;21.20;99.90
3660;DHT22;1846;51.482;7.224;2023-05-07T09:04:24;21.40;99.90
3660;DHT22;1846;51.482;7.224;2023-05-07T09:06:51;21.50;99.90
3660;DHT22;1846;51.482;7.224;2023-05-07T09:09:21;21.70;99.90
3660;DHT22;1846;51.482;7.224;2023-05-07T09:11:48;21.80;99.90
3660;DHT22;1846;51.482;7.224;2023-05-07T09:14:21;21.80;99.90
3660;DHT22;1846;51.482;7.224;2023-05-07T09:16:48;21.90;99.90
3660;DHT22;1846;51.482;7.224;2023-05-07T09:19:15;22.00;99.90
3660;DHT22;1846;51.482;7.224;2023-05-07T09:21:42;22.00;99.90
3660;DHT22;1846;51.482;7.224;2023-05-07T09:24:09;21.80;99.90
3660;DHT22;1846;51.482;7.224;2023-05-07T09:26:37;21.70;99.90
3660;DHT22;1846;51.482;7.224;2023-05-07T09:29:04;21.80;99.90
3660;DHT22;1846;51.482;7.224;2023-05-07T09:31:31;21.50;99.90
3660;DHT22;1846;51.482;7.224;2023-05-07T09:33:58;21.30;99.90
3660;DHT22;1846;51.482;7.224;2023-05-07T09:36:27;21.10;99.90
3660;DHT22;1846;51.482;7.224;2023-05-07T09:38:54;21.00;99.90
3660;DHT22;1846;51.482;7.224;2023-05-07T09:41:22;21.10;99.90
3660;DHT22;1846;51.482;7.224;2023-05-07T09:43:54;21.60;99.90
3660;DHT22;1846;51.482;7.224;2023-05-07T09:46:30;21.70;99.90
3660;DHT22;1846;51.482;7.224;2023-05-07T09:48:58;21.60;99.90
3660;DHT22;1846;51.482;7.224;2023-05-07T09:51:29;21.70;99.90
3660;DHT22;1846;51.482;7.224;2023-05-07T09:53:57;21.80;99.90
3660;DHT22;1846;51.482;7.224;2023-05-07T09:56:25;22.30;99.90
3660;DHT22;1846;51.482;7.224;2023-05-07T09:58:55;22.30;99.90
3660;DHT22;1846;51.482;7.224;2023-05-07T10:01:24;22.40;99.90
3660;DHT22;1846;51.482;7.224;2023-05-07T10:03:52;22.40;99.90
3660;DHT22;1846;51.482;7.224;2023-05-07T10:06:20;22.20;99.90
3660;DHT22;1846;51.482;7.224;2023-05-07T10:08:48;22.40;99.90
3660;DHT22;1846;51.482;7.224;2023-05-07T10:11:16;22.50;99.90
3660;DHT22;1846;51.482;7.224;2023-05-07T10:13:43;22.90;99.90
3660;DHT22;1846;51.482;7.224;2023-05-07T10:16:14;23.30;99.90
3660;DHT22;1846;51.482;7.224;2023-05-07T10:18:41;23.70;99.90
3660;DHT22;1846;51.482;7.224;2023-05-07T10:21:13;24.40;99.90
3660;DHT22;1846;51.482;7.224;2023-05-07T10:23:45;25.20;99.90
3660;DHT22;1846;51.482;7.224;2023-05-07T10:26:13;25.50;99.90
3660;DHT22;1846;51.482;7.224;2023-05-07T10:28:43;26.00;99.90
3660;DHT22;1846;51.482;7.224;2023-05-07T10:31:29;26.10;99.90
3660;DHT22;1846;51.482;7.224;2023-05-07T10:34:00;26.20;99.90
3660;DHT22;1846;51.482;7.224;2023-05-07T10:36:29;26.10;99.90
3660;DHT22;1846;51.482;7.224;2023-05-07T10:38:56;26.40;99.90
3660;DHT22;1846;51.482;7.224;2023-05-07T10:41:23;26.70;99.90
3660;DHT22;1846;51.482;7.224;2023-05-07T10:43:50;26.60;99.90
3660;DHT22;1846;51.482;7.224;2023-05-07T10:46:19;26.40;99.90
3660;DHT22;1846;51.482;7.224;2023-05-07T10:49:08;26.40;99.90
3660;DHT22;1846;51.482;7.224;2023-05-07T10:51:38;26.30;99.90
3660;DHT22;1846;51.482;7.224;2023-05-07T10:54:21;25.90;99.90
3660;DHT22;1846;51.482;7.224;2023-05-07T10:56:52;25.00;99.90
3660;DHT22;1846;51.482;7.224;2023-05-07T10:59:35;24.40;99.90
3660;DHT22;1846;51.482;7.224;2023-05-07T11:02:09;24.00;99.90
3660;DHT22;1846;51.482;7.224;2023-05-07T11:04:37;24.20;99.90
3660;DHT22;1846;51.482;7.224;2023-05-07T11:07:25;24.40;99.90
3660;DHT22;1846;51.482;7.224;2023-05-07T11:10:01;24.50;99.90
3660;DHT22;1846;51.482;7.224;2023-05-07T11:12:49;24.40;99.90
3660;DHT22;1846;51.482;7.224;2023-05-07T11:15:35;24.50;99.90
3660;DHT22;1846;51.482;7.224;2023-05-07T11:18:04;24.70;99.90
3660;DHT22;1846;51.482;7.224;2023-05-07T11:21:01;25.00;99.90
3660;DHT22;1846;51.482;7.224;2023-05-07T11:23:56;24.90;99.90
3660;DHT22;1846;51.482;7.224;2023-05-07T11:26:24;24.60;99.90
3660;DHT22;1846;51.482;7.224;2023-05-07T11:28:52;24.50;99.90
3660;DHT22;1846;51.482;7.224;2023-05-07T11:31:23;24.50;99.90
3660;DHT22;1846;51.482;7.224;2023-05-07T11:33:53;24.00;99.90
3660;DHT22;1846;51.482;7.224;2023-05-07T11:36:22;24.10;99.90
3660;DHT22;1846;51.482;7.224;2023-05-07T11:38:49;24.10;99.90
3660;DHT22;1846;51.482;7.224;2023-05-07T11:41:16;24.10;99.90
3660;DHT22;1846;51.482;7.224;2023-05-07T11:43:58;24.10;99.90
3660;DHT22;1846;51.482;7.224;2023-05-07T11:46:27;23.90;99.90
3660;DHT22;1846;51.482;7.224;2023-05-07T11:48:56;24.00;99.90
3660;DHT22;1846;51.482;7.224;2023-05-07T11:51:24;24.00;99.90
3660;DHT22;1846;51.482;7.224;2023-05-07T11:53:52;23.90;99.90
3660;DHT22;1846;51.482;7.224;2023-05-07T11:56:20;23.80;99.90
3660;DHT22;1846;51.482;7.224;2023-05-07T11:58:48;23.70;99.90
3660;DHT22;1846;51.482;7.224;2023-05-07T12:01:16;23.60;99.90
3660;DHT22;1846;51.482;7.224;2023-05-07T12:03:44;23.60;99.90
3660;DHT22;1846;51.482;7.224;2023-05-07T12:06:14;23.50;99.90
3660;DHT22;1846;51.482;7.224;2023-05-07T12:08:42;23.80;99.90
3660;DHT22;1846;51.482;7.224;2023-05-07T12:11:13;24.10;99.90
3660;DHT22;1846;51.482;7.224;2023-05-07T12:13:41;24.20;99.90
3660;DHT22;1846;51.482;7.224;2023-05-07T12:16:08;24.40;99.90
3660;DHT22;1846;51.482;7.224;2023-05-07T12:18:36;24.30;99.90
3660;DHT22;1846;51.482;7.224;2023-05-07T12:21:04;24.50;99.90
3660;DHT22;1846;51.482;7.224;2023-05-07T12:23:33;24.40;99.90
3660;DHT22;1846;51.482;7.224;2023-05-07T12:26:01;24.10;99.90
3660;DHT22;1846;51.482;7.224;2023-05-07T12:28:28;23.60;99.90
3660;DHT22;1846;51.482;7.224;2023-05-07T12:30:56;23.40;99.90
3660;DHT22;1846;51.482;7.224;2023-05-07T12:33:25;23.20;99.90
3660;DHT22;1846;51.482;7.224;2023-05-07T12:35:54;23.30;99.90
3660;DHT22;1846;51.482;7.224;2023-05-07T12:38:22;23.20;99.90
3660;DHT22;1846;51.482;7.224;2023-05-07T12:40:53;23.00;99.90
3660;DHT22;1846;51.482;7.224;2023-05-07T12:43:21;23.00;99.90
3660;DHT22;1846;51.482;7.224;2023-05-07T12:45:49;23.10;99.90
3660;DHT22;1846;51.482;7.224;2023-05-07T12:48:17;23.00;99.90
3660;DHT22;1846;51.482;7.224;2023-05-07T12:50:44;22.90;99.90
3660;DHT22;1846;51.482;7.224;2023-05-07T12:53:11;22.60;99.90
3660;DHT22;1846;51.482;7.224;2023-05-07T12:55:42;22.40;99.90
3660;DHT22;1846;51.482;7.224;2023-05-07T12:58:16;22.20;99.90
3660;DHT22;1846;51.482;7.224;2023-05-07T13:00:43;22.30;99.90
3660;DHT22;1846;51.482;7.224;2023-05-07T13:03:11;22.30;99.90
3660;DHT22;1846;51.482;7.224;2023-05-07T13:05:38;22.10;99.90
3660;DHT22;1846;51.482;7.224;2023-05-07T13:08:05;22.00;99.90
3660;DHT22;1846;51.482;7.224;2023-05-07T13:10:32;22.00;99.90
3660;DHT22;1846;51.482;7.224;2023-05-07T13:12:59;22.00;99.90
3660;DHT22;1846;51.482;7.224;2023-05-07T13:15:28;22.00;99.90
3660;DHT22;1846;51.482;7.224;2023-05-07T13:17:55;21.90;99.90
3660;DHT22;1846;51.482;7.224;2023-05-07T13:20:22;21.70;99.90
3660;DHT22;1846;51.482;7.224;2023-05-07T13:22:48;21.70;99.90
3660;DHT22;1846;51.482;7.224;2023-05-07T13:25:15;21.80;99.90
3660;DHT22;1846;51.482;7.224;2023-05-07T13:27:42;21.80;99.90
3660;DHT22;1846;51.482;7.224;2023-05-07T13:30:09;21.70;99.90
3660;DHT22;1846;51.482;7.224;2023-05-07T13:32:38;21.80;99.90
3660;DHT22;1846;51.482;7.224;2023-05-07T13:35:05;21.80;99.90
3660;DHT22;1846;51.482;7.224;2023-05-07T13:37:32;21.80;99.90
3660;DHT22;1846;51.482;7.224;2023-05-07T13:39:59;21.70;99.90
3660;DHT22;1846;51.482;7.224;2023-05-07T13:42:26;21.50;99.90
3660;DHT22;1846;51.482;7.224;2023-05-07T13:44:53;21.40;99.90
3660;DHT22;1846;51.482;7.224;2023-05-07T13:47:20;21.40;99.90
3660;DHT22;1846;51.482;7.224;2023-05-07T13:49:48;21.40;99.90
3660;DHT22;1846;51.482;7.224;2023-05-07T13:52:16;21.40;99.90
3660;DHT22;1846;51.482;7.224;2023-05-07T13:54:42;21.40;99.90
3660;DHT22;1846;51.482;7.224;2023-05-07T13:57:09;21.30;99.90
3660;DHT22;1846;51.482;7.224;2023-05-07T13:59:36;21.30;99.90
3660;DHT22;1846;51.482;7.224;2023-05-07T14:02:03;21.30;99.90
3660;DHT22;1846;51.482;7.224;2023-05-07T14:04:31;21.40;99.90
3660;DHT22;1846;51.482;7.224;2023-05-07T14:06:59;21.50;99.90
3660;DHT22;1846;51.482;7.224;2023-05-07T14:09:26;21.30;99.90
3660;DHT22;1846;51.482;7.224;2023-05-07T14:11:52;21.30;99.90
3660;DHT22;1846;51.482;7.224;2023-05-07T14:14:19;21.30;99.90
3660;DHT22;1846;51.482;7.224;2023-05-07T14:16:46;21.30;99.90
3660;DHT22;1846;51.482;7.224;2023-05-07T14:19:13;21.30;99.90
3660;DHT22;1846;51.482;7.224;2023-05-07T14:21:40;21.40;99.90
3660;DHT22;1846;51.482;7.224;2023-05-07T14:24:09;21.50;99.90
3660;DHT22;1846;51.482;7.224;2023-05-07T14:26:36;21.60;99.90
3660;DHT22;1846;51.482;7.224;2023-05-07T14:29:03;21.60;99.90
3660;DHT22;1846;51.482;7.224;2023-05-07T14:31:30;21.50;99.90
3660;DHT22;1846;51.482;7.224;2023-05-07T14:33:56;21.50;99.90
3660;DHT22;1846;51.482;7.224;2023-05-07T14:36:24;21.50;99.90
3660;DHT22;1846;51.482;7.224;2023-05-07T14:38:52;21.50;99.90
3660;DHT22;1846;51.482;7.224;2023-05-07T14:41:21;21.40;99.90
3660;DHT22;1846;51.482;7.224;2023-05-07T14:43:48;21.40;99.90
3660;DHT22;1846;51.482;7.224;2023-05-07T14:46:16;21.40;99.90
3660;DHT22;1846;51.482;7.224;2023-05-07T14:48:44;21.50;99.90
3660;DHT22;1846;51.482;7.224;2023-05-07T14:51:11;21.60;99.90
3660;DHT22;1846;51.482;7.224;2023-05-07T14:53:38;21.60;99.90
3660;DHT22;1846;51.482;7.224;2023-05-07T14:56:05;21.40;99.90
3660;DHT22;1846;51.482;7.224;2023-05-07T14:58:34;21.40;99.90
3660;DHT22;1846;51.482;7.224;2023-05-07T15:01:02;21.50;99.90
3660;DHT22;1846;51.482;7.224;2023-05-07T15:03:29;21.40;99.90
3660;DHT22;1846;51.482;7.224;2023-05-07T15:05:56;21.40;99.90
3660;DHT22;1846;51.482;7.224;2023-05-07T15:08:23;21.40;99.90
3660;DHT22;1846;51.482;7.224;2023-05-07T15:10:50;21.50;99.90
3660;DHT22;1846;51.482;7.224;2023-05-07T15:13:17;21.50;99.90
3660;DHT22;1846;51.482;7.224;2023-05-07T15:15:45;21.30;99.90
3660;DHT22;1846;51.482;7.224;2023-05-07T15:18:12;21.30;99.90
3660;DHT22;1846;51.482;7.224;2023-05-07T15:20:39;21.40;99.90
3660;DHT22;1846;51.482;7.224;2023-05-07T15:23:06;21.30;99.90
3660;DHT22;1846;51.482;7.224;2023-05-07T15:25:35;21.30;99.90
3660;DHT22;1846;51.482;7.224;2023-05-07T15:28:02;21.30;99.90
3660;DHT22;1846;51.482;7.224;2023-05-07T15:30:29;21.30;99.90
3660;DHT22;1846;51.482;7.224;2023-05-07T15:32:58;21.30;99.90
3660;DHT22;1846;51.482;7.224;2023-05-07T15:35:25;21.30;99.90
3660;DHT22;1846;51.482;7.224;2023-05-07T15:37:52;21.40;99.90
3660;DHT22;1846;51.482;7.224;2023-05-07T15:40:19;21.50;99.90
3660;DHT22;1846;51.482;7.224;2023-05-07T15:42:46;21.60;99.90
3660;DHT22;1846;51.482;7.224;2023-05-07T15:45:13;21.50;99.90
3660;DHT22;1846;51.482;7.224;2023-05-07T15:47:40;21.40;99.90
3660;DHT22;1846;51.482;7.224;2023-05-07T15:50:09;21.40;99.90
3660;DHT22;1846;51.482;7.224;2023-05-07T15:52:36;21.40;99.90
3660;DHT22;1846;51.482;7.224;2023-05-07T15:55:04;21.30;99.90
3660;DHT22;1846;51.482;7.224;2023-05-07T15:57:32;21.30;99.90
3660;DHT22;1846;51.482;7.224;2023-05-07T15:59:59;21.20;99.90
3660;DHT22;1846;51.482;7.224;2023-05-07T16:02:25;21.30;99.90
3660;DHT22;1846;51.482;7.224;2023-05-07T16:04:52;21.20;99.90
3660;DHT22;1846;51.482;7.224;2023-05-07T16:07:20;21.20;99.90
3660;DHT22;1846;51.482;7.224;2023-05-07T16:09:48;21.30;99.90
3660;DHT22;1846;51.482;7.224;2023-05-07T16:12:15;21.30;99.90